Time;durP1;ratioP1;P1;durP2;ratioP2;P2;SDS_P1;SDS_P2;PMS_P1;PMS_P2;Temp;Humidity;BMP_temperature;BMP_pressure;BME280_temperature;BME280_humidity;BME280_pressure;Samples;Min_cycle;Max_cycle;Signal;HPM_P1;HPM_P2
2021/12/13 00:00:19;;;;;;;8.27;4.30;;;;;;;;;;5064296;28;20070;-86
2021/12/13 00:02:54;;;;;;;8.05;4.50;;;;;;;;;;5096439;28;20058;-86
2021/12/13 00:05:28;;;;;;;9.68;4.55;;;;;;;;;;5094243;28;20281;-85
2021/12/13 00:07:58;;;;;;;8.95;4.82;;;;;;;;;;5084329;28;20071;-86
2021/12/13 00:10:35;;;;;;;11.05;5.47;;;;;;;;;;5098196;28;20496;-86
2021/12/13 00:13:06;;;;;;;9.02;4.60;;;;;;;;;;5078600;28;20048;-85
2021/12/13 00:15:36;;;;;;;10.43;4.95;;;;;;;;;;5068089;28;20059;-86
2021/12/13 00:18:07;;;;;;;9.30;4.22;;;;;;;;;;5101197;28;20129;-86
2021/12/13 00:20:44;;;;;;;8.15;4.47;;;;;;;;;;5092216;28;20067;-86
2021/12/13 00:23:16;;;;;;;8.05;4.60;;;;;;;;;;5094864;28;20048;-85
2021/12/13 00:25:45;;;;;;;8.82;4.45;;;;;;;;;;5092712;28;20101;-86
2021/12/13 00:28:15;;;;;;;7.80;4.50;;;;;;;;;;5058451;28;20044;-86
2021/12/13 00:30:50;;;;;;;9.02;4.82;;;;;;;;;;5067241;28;20098;-85
2021/12/13 00:33:28;;;;;;;7.45;4.30;;;;;;;;;;5093863;28;20073;-85
2021/12/13 00:36:06;;;;;;;8.77;5.05;;;;;;;;;;5087231;28;20066;-86
2021/12/13 00:38:39;;;;;;;7.57;3.72;;;;;;;;;;5075756;28;20079;-86
2021/12/13 00:41:13;;;;;;;8.55;4.63;;;;;;;;;;5094303;28;20075;-86
2021/12/13 00:43:45;;;;;;;6.82;3.67;;;;;;;;;;5064091;28;20044;-86
2021/12/13 00:46:13;;;;;;;8.10;4.25;;;;;;;;;;5096985;28;20121;-85
2021/12/13 00:48:45;;;;;;;7.22;3.80;;;;;;;;;;5074580;28;20053;-86
2021/12/13 00:51:19;;;;;;;7.13;4.15;;;;;;;;;;5067320;28;20105;-86
2021/12/13 00:53:49;;;;;;;11.27;4.82;;;;;;;;;;5096721;28;20040;-86
2021/12/13 00:56:46;;;;;;;7.22;4.28;;;;;;;;;;5096348;28;20052;-86
2021/12/13 00:59:23;;;;;;;8.35;4.82;;;;;;;;;;5078439;28;20054;-86
2021/12/13 01:01:54;;;;;;;8.32;4.63;;;;;;;;;;5098155;28;20097;-85
2021/12/13 01:04:22;;;;;;;8.38;4.28;;;;;;;;;;5097806;28;20048;-85
2021/12/13 01:07:27;;;;;;;7.78;3.92;;;;;;;;;;5095842;28;20048;-85
2021/12/13 01:10:31;;;;;;;7.93;4.43;;;;;;;;;;5081316;28;20044;-86
2021/12/13 01:13:00;;;;;;;6.38;3.67;;;;;;;;;;5090508;28;20066;-86
2021/12/13 01:15:35;;;;;;;7.65;4.38;;;;;;;;;;5079097;28;20050;-85
2021/12/13 01:18:23;;;;;;;7.18;4.03;;;;;;;;;;5098266;28;20040;-85
2021/12/13 01:21:08;;;;;;;7.65;4.45;;;;;;;;;;5098560;28;20051;-86
2021/12/13 01:23:44;;;;;;;7.60;4.65;;;;;;;;;;5096863;28;20450;-86
2021/12/13 01:26:29;;;;;;;9.20;4.70;;;;;;;;;;5096321;28;20458;-85
2021/12/13 01:29:01;;;;;;;6.65;3.67;;;;;;;;;;5096718;28;20481;-86
2021/12/13 01:31:31;;;;;;;6.72;3.50;;;;;;;;;;5094985;28;20037;-86
2021/12/13 01:34:01;;;;;;;10.38;3.78;;;;;;;;;;5095105;28;20048;-86
2021/12/13 01:36:33;;;;;;;9.10;4.28;;;;;;;;;;5079117;28;20515;-86
2021/12/13 01:39:13;;;;;;;6.78;3.88;;;;;;;;;;5104889;28;20062;-85
2021/12/13 01:41:47;;;;;;;7.25;4.13;;;;;;;;;;5083333;28;20059;-86
2021/12/13 01:44:17;;;;;;;7.78;4.00;;;;;;;;;;5097754;28;20040;-86
2021/12/13 01:46:49;;;;;;;7.70;4.40;;;;;;;;;;5103839;28;20048;-86
2021/12/13 01:49:16;;;;;;;8.20;4.28;;;;;;;;;;5087292;28;20074;-87
2021/12/13 01:51:45;;;;;;;7.07;3.88;;;;;;;;;;5061599;28;20047;-85
2021/12/13 01:54:15;;;;;;;7.15;4.15;;;;;;;;;;5064638;28;20057;-86
2021/12/13 01:56:54;;;;;;;8.75;4.43;;;;;;;;;;5068393;28;20100;-86
2021/12/13 02:02:20;;;;;;;23.70;7.13;;;;;;;;;;5094075;28;20108;-86
2021/12/13 02:04:57;;;;;;;6.18;3.58;;;;;;;;;;5087269;28;20058;-85
2021/12/13 02:07:26;;;;;;;8.98;4.28;;;;;;;;;;5077369;28;20044;-86
2021/12/13 02:09:58;;;;;;;5.65;3.58;;;;;;;;;;5100347;28;20044;-86
2021/12/13 02:12:30;;;;;;;7.78;4.30;;;;;;;;;;5094464;28;20047;-85
2021/12/13 02:17:39;;;;;;;6.57;4.32;;;;;;;;;;5067241;28;20050;-86
2021/12/13 02:20:11;;;;;;;8.73;4.35;;;;;;;;;;5097086;28;20036;-85
2021/12/13 02:22:42;;;;;;;9.20;4.30;;;;;;;;;;5095690;28;20058;-85
2021/12/13 02:25:14;;;;;;;7.55;4.25;;;;;;;;;;5097760;28;20037;-86
2021/12/13 02:27:43;;;;;;;7.95;4.35;;;;;;;;;;5078508;28;20509;-85
2021/12/13 02:30:17;;;;;;;8.75;4.40;;;;;;;;;;5094785;28;20052;-85
2021/12/13 02:48:20;;;;;;;7.90;4.25;;;;;;;;;;5083787;28;20044;-84
2021/12/13 02:50:56;;;;;;;7.55;4.78;;;;;;;;;;5084946;28;20461;-87
2021/12/13 02:53:33;;;;;;;7.88;4.25;;;;;;;;;;5077154;28;20052;-87
2021/12/13 02:56:00;;;;;;;7.22;4.47;;;;;;;;;;5089920;28;20071;-87
2021/12/13 02:58:29;;;;;;;8.15;4.78;;;;;;;;;;5063180;28;20090;-87
2021/12/13 03:01:01;;;;;;;5.88;3.97;;;;;;;;;;5074768;28;20575;-87
2021/12/13 03:03:39;;;;;;;8.93;4.15;;;;;;;;;;5069894;28;20047;-87
2021/12/13 03:06:08;;;;;;;7.22;4.30;;;;;;;;;;5047537;28;20055;-85
2021/12/13 03:08:39;;;;;;;11.15;5.10;;;;;;;;;;5086923;28;20079;-87
2021/12/13 03:11:09;;;;;;;6.82;4.20;;;;;;;;;;5055579;28;20052;-88
2021/12/13 03:13:37;;;;;;;7.95;4.18;;;;;;;;;;5071224;28;20117;-84
2021/12/13 03:16:09;;;;;;;7.90;4.40;;;;;;;;;;5075781;28;20054;-87
2021/12/13 03:18:44;;;;;;;7.80;4.15;;;;;;;;;;5098874;28;21065;-87
2021/12/13 03:21:37;;;;;;;26.30;5.88;;;;;;;;;;5076342;28;20072;-87
2021/12/13 03:24:20;;;;;;;9.95;4.85;;;;;;;;;;5078733;28;20040;-87
2021/12/13 03:27:08;;;;;;;7.57;4.20;;;;;;;;;;5097216;28;20082;-88
2021/12/13 03:29:46;;;;;;;7.03;3.90;;;;;;;;;;5094442;28;20075;-87
2021/12/13 03:32:18;;;;;;;6.50;3.83;;;;;;;;;;5097035;28;20049;-84
2021/12/13 03:34:58;;;;;;;6.25;3.30;;;;;;;;;;5096147;28;20109;-88
2021/12/13 03:37:27;;;;;;;6.35;3.63;;;;;;;;;;5093384;28;20377;-87
2021/12/13 03:39:59;;;;;;;4.75;2.97;;;;;;;;;;5077592;28;20040;-87
2021/12/13 03:42:30;;;;;;;5.93;3.10;;;;;;;;;;5095369;28;20044;-85
2021/12/13 03:45:03;;;;;;;5.20;3.35;;;;;;;;;;5097031;28;20040;-86
2021/12/13 03:47:34;;;;;;;5.85;3.17;;;;;;;;;;5097544;28;20055;-84
2021/12/13 03:50:13;;;;;;;7.15;3.75;;;;;;;;;;5097062;28;20094;-87
2021/12/13 03:52:44;;;;;;;6.53;3.80;;;;;;;;;;5074090;28;20067;-86
2021/12/13 03:55:13;;;;;;;9.35;4.80;;;;;;;;;;5097248;28;20144;-86
2021/12/13 03:57:48;;;;;;;9.13;4.70;;;;;;;;;;5086781;28;20505;-86
2021/12/13 04:00:19;;;;;;;6.65;3.67;;;;;;;;;;5088285;28;20131;-86
2021/12/13 04:02:49;;;;;;;8.25;4.47;;;;;;;;;;5086785;28;20071;-86
2021/12/13 04:05:20;;;;;;;26.65;5.53;;;;;;;;;;5092563;28;20040;-86
2021/12/13 04:07:49;;;;;;;7.72;4.53;;;;;;;;;;5096157;28;20045;-86
2021/12/13 04:10:18;;;;;;;7.93;4.30;;;;;;;;;;5079361;28;20505;-86
2021/12/13 04:12:49;;;;;;;7.47;4.65;;;;;;;;;;5100589;28;20047;-87
2021/12/13 04:15:23;;;;;;;6.90;4.10;;;;;;;;;;5100019;28;20052;-87
2021/12/13 04:18:01;;;;;;;8.35;3.95;;;;;;;;;;5101872;28;20039;-87
2021/12/13 04:20:33;;;;;;;6.22;3.97;;;;;;;;;;5081273;28;20077;-86
2021/12/13 04:23:05;;;;;;;8.43;4.28;;;;;;;;;;5093852;28;20076;-85
2021/12/13 04:25:36;;;;;;;7.50;4.10;;;;;;;;;;5094887;28;20052;-86
2021/12/13 04:28:07;;;;;;;8.10;4.97;;;;;;;;;;5098301;28;20750;-86
2021/12/13 04:30:37;;;;;;;7.72;4.40;;;;;;;;;;5093476;28;20043;-87
2021/12/13 04:33:07;;;;;;;9.05;4.97;;;;;;;;;;5097188;28;20477;-87
2021/12/13 04:35:38;;;;;;;9.20;5.18;;;;;;;;;;5092878;28;20036;-87
2021/12/13 04:38:09;;;;;;;7.72;4.53;;;;;;;;;;5094860;28;20083;-86
2021/12/13 04:40:39;;;;;;;7.18;4.65;;;;;;;;;;5089829;28;20044;-85
2021/12/13 04:43:08;;;;;;;9.68;4.63;;;;;;;;;;5091972;28;20075;-86
2021/12/13 04:45:36;;;;;;;8.35;4.90;;;;;;;;;;5092210;28;20157;-86
2021/12/13 04:48:06;;;;;;;6.43;4.30;;;;;;;;;;5073448;28;20150;-87
2021/12/13 04:50:47;;;;;;;7.65;4.82;;;;;;;;;;5072025;28;20059;-86
2021/12/13 04:53:18;;;;;;;7.18;4.55;;;;;;;;;;5089889;28;20290;-86
2021/12/13 04:55:45;;;;;;;8.57;4.70;;;;;;;;;;5095976;28;20045;-86
2021/12/13 04:58:14;;;;;;;9.40;5.28;;;;;;;;;;5088572;28;20083;-86
2021/12/13 05:00:45;;;;;;;6.82;4.35;;;;;;;;;;5073798;28;20067;-86
2021/12/13 05:03:15;;;;;;;8.80;5.00;;;;;;;;;;5077031;28;20052;-87
2021/12/13 05:05:45;;;;;;;9.48;5.45;;;;;;;;;;5089307;28;20075;-86
2021/12/13 05:08:15;;;;;;;8.02;5.00;;;;;;;;;;5087049;28;20584;-85
2021/12/13 05:10:46;;;;;;;8.77;5.43;;;;;;;;;;5069990;28;20097;-86
2021/12/13 05:13:16;;;;;;;8.35;4.72;;;;;;;;;;5067579;28;20485;-85
2021/12/13 05:15:46;;;;;;;7.90;4.82;;;;;;;;;;5094055;28;20065;-85
2021/12/13 05:18:19;;;;;;;8.63;4.70;;;;;;;;;;5068721;28;20083;-84
2021/12/13 05:20:57;;;;;;;9.30;4.85;;;;;;;;;;5091381;28;20072;-85
2021/12/13 05:23:24;;;;;;;10.20;5.68;;;;;;;;;;5067512;28;20481;-85
2021/12/13 05:25:55;;;;;;;19.63;6.72;;;;;;;;;;5091062;28;20040;-86
2021/12/13 05:28:24;;;;;;;10.65;5.82;;;;;;;;;;5076750;28;20083;-85
2021/12/13 05:30:57;;;;;;;11.73;6.25;;;;;;;;;;5086065;28;20064;-85
2021/12/13 05:33:26;;;;;;;9.77;5.30;;;;;;;;;;5061040;28;20044;-85
2021/12/13 05:35:57;;;;;;;11.43;6.35;;;;;;;;;;5090959;28;20071;-86
2021/12/13 05:38:28;;;;;;;11.40;5.60;;;;;;;;;;5090404;28;20111;-86
2021/12/13 05:41:03;;;;;;;9.80;6.07;;;;;;;;;;5060397;28;20046;-86
2021/12/13 05:43:32;;;;;;;9.35;6.13;;;;;;;;;;5072794;28;20098;-86
2021/12/13 05:46:03;;;;;;;11.23;5.75;;;;;;;;;;5094181;28;20397;-87
2021/12/13 05:48:45;;;;;;;8.63;4.50;;;;;;;;;;5082503;28;20105;-86
2021/12/13 05:51:32;;;;;;;12.55;5.30;;;;;;;;;;5085062;28;20048;-85
2021/12/13 05:54:03;;;;;;;8.77;5.65;;;;;;;;;;5094354;28;20058;-87
2021/12/13 05:56:36;;;;;;;14.82;8.10;;;;;;;;;;5077492;28;20066;-87
2021/12/13 05:59:24;;;;;;;13.73;7.55;;;;;;;;;;5092710;28;20089;-87
2021/12/13 06:02:08;;;;;;;13.93;8.00;;;;;;;;;;5089879;28;20089;-87
2021/12/13 06:04:44;;;;;;;14.77;7.10;;;;;;;;;;5095637;28;20559;-88
2021/12/13 06:07:24;;;;;;;12.15;6.85;;;;;;;;;;5079578;28;20087;-86
2021/12/13 06:09:58;;;;;;;9.63;5.80;;;;;;;;;;5093590;28;20077;-87
2021/12/13 06:12:32;;;;;;;9.52;5.57;;;;;;;;;;5093566;28;20076;-88
2021/12/13 06:15:05;;;;;;;9.02;5.22;;;;;;;;;;5077118;28;20040;-84
2021/12/13 06:17:35;;;;;;;9.18;5.75;;;;;;;;;;5095797;28;20048;-87
2021/12/13 06:20:07;;;;;;;13.02;6.03;;;;;;;;;;5096276;28;20519;-88
2021/12/13 06:22:37;;;;;;;10.45;5.90;;;;;;;;;;5096066;28;20043;-87
2021/12/13 06:25:08;;;;;;;12.57;7.00;;;;;;;;;;5079055;28;20108;-89
2021/12/13 06:27:43;;;;;;;13.20;7.28;;;;;;;;;;5077361;28;20066;-88
2021/12/13 06:30:13;;;;;;;11.43;5.75;;;;;;;;;;5098160;28;20055;-88
2021/12/13 06:32:44;;;;;;;9.40;5.32;;;;;;;;;;5086191;28;20055;-87
2021/12/13 06:35:43;;;;;;;11.00;6.30;;;;;;;;;;5100508;28;20060;-89
2021/12/13 06:38:38;;;;;;;10.80;6.07;;;;;;;;;;5092733;28;20037;-86
2021/12/13 06:41:10;;;;;;;12.65;6.93;;;;;;;;;;5071739;28;20074;-88
2021/12/13 06:43:39;;;;;;;13.73;7.00;;;;;;;;;;5093777;28;20554;-86
2021/12/13 06:46:10;;;;;;;12.90;6.72;;;;;;;;;;5076529;28;20040;-86
2021/12/13 06:48:41;;;;;;;8.25;5.50;;;;;;;;;;5077118;28;20137;-85
2021/12/13 06:51:10;;;;;;;11.50;6.47;;;;;;;;;;5098987;28;20557;-85
2021/12/13 06:53:41;;;;;;;13.35;7.72;;;;;;;;;;5065221;28;20044;-86
2021/12/13 06:56:25;;;;;;;27.98;8.13;;;;;;;;;;5099472;28;20086;-85
2021/12/13 06:58:55;;;;;;;25.40;6.95;;;;;;;;;;5098470;28;20072;-85
2021/12/13 07:01:23;;;;;;;22.60;8.23;;;;;;;;;;5100288;28;20040;-85
2021/12/13 07:03:56;;;;;;;17.10;8.60;;;;;;;;;;5068670;28;20036;-85
2021/12/13 07:06:23;;;;;;;14.50;8.15;;;;;;;;;;5079375;28;20406;-85
2021/12/13 07:09:05;;;;;;;30.17;9.18;;;;;;;;;;5098587;28;20044;-85
2021/12/13 07:11:41;;;;;;;17.30;7.60;;;;;;;;;;5098004;28;20553;-85
2021/12/13 07:14:13;;;;;;;;;;;;;;;;;;5097874;28;20048;-85
2021/12/13 07:16:42;;;;;;;11.50;6.13;;;;;;;;;;5097780;28;19928;-85
2021/12/13 07:19:18;;;;;;;22.05;7.60;;;;;;;;;;5094568;28;20129;-84
2021/12/13 07:21:51;;;;;;;16.92;7.72;;;;;;;;;;5093927;28;20119;-84
2021/12/13 07:24:29;;;;;;;15.23;7.95;;;;;;;;;;5092450;28;20051;-84
2021/12/13 07:27:04;;;;;;;25.90;8.55;;;;;;;;;;5092720;28;20071;-84
2021/12/13 07:29:36;;;;;;;16.90;9.77;;;;;;;;;;5091985;28;20083;-84
2021/12/13 07:32:10;;;;;;;16.15;8.55;;;;;;;;;;5075125;28;20078;-85
2021/12/13 07:34:50;;;;;;;19.40;10.68;;;;;;;;;;5094213;28;20502;-86
2021/12/13 07:37:19;;;;;;;23.13;9.73;;;;;;;;;;5092964;28;20048;-86
2021/12/13 07:39:48;;;;;;;15.45;8.45;;;;;;;;;;5094395;28;20071;-84
2021/12/13 07:42:15;;;;;;;14.82;8.07;;;;;;;;;;5093242;28;20083;-84
2021/12/13 07:44:44;;;;;;;16.50;8.63;;;;;;;;;;5096286;28;20040;-84
2021/12/13 07:47:13;;;;;;;12.55;7.57;;;;;;;;;;5091180;28;20040;-84
2021/12/13 07:49:43;;;;;;;14.57;8.18;;;;;;;;;;5095475;28;20130;-83
2021/12/13 07:52:11;;;;;;;15.18;8.75;;;;;;;;;;5092796;28;20044;-84
2021/12/13 07:54:41;;;;;;;19.58;11.23;;;;;;;;;;5090939;28;20597;-85
2021/12/13 07:57:23;;;;;;;19.73;10.27;;;;;;;;;;5062578;28;20059;-85
2021/12/13 07:59:51;;;;;;;18.05;8.63;;;;;;;;;;5074853;28;20072;-84
2021/12/13 08:02:26;;;;;;;13.50;7.68;;;;;;;;;;5094978;28;20044;-88
2021/12/13 08:04:56;;;;;;;15.75;7.50;;;;;;;;;;5096628;28;20044;-85
2021/12/13 08:07:26;;;;;;;21.50;10.25;;;;;;;;;;5096470;28;20481;-86
2021/12/13 08:09:59;;;;;;;30.23;9.38;;;;;;;;;;5095618;28;20066;-85
2021/12/13 08:12:30;;;;;;;13.52;6.43;;;;;;;;;;5095172;28;20117;-85
2021/12/13 08:15:10;;;;;;;16.33;7.20;;;;;;;;;;5078784;28;20058;-86
2021/12/13 08:17:43;;;;;;;17.20;6.32;;;;;;;;;;5075954;28;20055;-85
2021/12/13 08:20:14;;;;;;;7.30;4.18;;;;;;;;;;5077580;28;20060;-85
2021/12/13 08:22:43;;;;;;;7.65;4.85;;;;;;;;;;5096634;28;20044;-83
2021/12/13 08:25:18;;;;;;;7.50;4.43;;;;;;;;;;5094499;28;20418;-86
2021/12/13 08:27:55;;;;;;;7.45;4.05;;;;;;;;;;5093905;28;20552;-85
2021/12/13 08:30:26;;;;;;;7.63;4.13;;;;;;;;;;5092085;28;20036;-85
2021/12/13 08:32:59;;;;;;;9.15;3.35;;;;;;;;;;5092714;28;20071;-85
2021/12/13 08:35:27;;;;;;;7.03;3.67;;;;;;;;;;5078117;28;20469;-86
2021/12/13 08:37:58;;;;;;;5.25;3.42;;;;;;;;;;5094493;28;20048;-86
2021/12/13 08:40:28;;;;;;;6.38;3.53;;;;;;;;;;5095805;28;20148;-84
2021/12/13 08:43:00;;;;;;;6.32;3.70;;;;;;;;;;5096385;28;20780;-87
2021/12/13 08:45:31;;;;;;;7.80;3.78;;;;;;;;;;5091395;28;20465;-86
2021/12/13 08:48:02;;;;;;;6.43;3.65;;;;;;;;;;5077705;28;20067;-86
2021/12/13 08:50:39;;;;;;;8.02;3.83;;;;;;;;;;5094829;28;20044;-86
2021/12/13 08:53:09;;;;;;;8.18;4.63;;;;;;;;;;5089765;28;20075;-86
2021/12/13 08:55:39;;;;;;;9.90;6.25;;;;;;;;;;5091301;28;20086;-86
2021/12/13 08:58:15;;;;;;;16.13;6.72;;;;;;;;;;5094330;28;20136;-86
2021/12/13 09:00:54;;;;;;;11.52;6.05;;;;;;;;;;5061816;28;20047;-85
2021/12/13 09:03:36;;;;;;;13.68;5.50;;;;;;;;;;5077810;28;20130;-86
2021/12/13 09:06:14;;;;;;;13.35;6.28;;;;;;;;;;5075988;28;20062;-86
2021/12/13 09:08:44;;;;;;;14.75;6.43;;;;;;;;;;5091055;28;20071;-84
2021/12/13 09:11:25;;;;;;;14.80;7.25;;;;;;;;;;5092505;28;20048;-84
2021/12/13 09:13:58;;;;;;;12.55;6.30;;;;;;;;;;5094478;28;20055;-84
2021/12/13 09:16:31;;;;;;;14.30;6.85;;;;;;;;;;5077102;28;21452;-84
2021/12/13 09:19:13;;;;;;;12.63;7.18;;;;;;;;;;5076652;28;20076;-84
2021/12/13 09:21:53;;;;;;;11.15;6.15;;;;;;;;;;5095454;28;20055;-84
2021/12/13 09:24:38;;;;;;;16.05;7.43;;;;;;;;;;5091671;28;20047;-84
2021/12/13 09:27:18;;;;;;;10.70;5.50;;;;;;;;;;5090744;28;20052;-84
2021/12/13 09:29:59;;;;;;;12.52;6.38;;;;;;;;;;5091562;28;20068;-83
2021/12/13 09:32:35;;;;;;;11.52;6.63;;;;;;;;;;5088594;28;20044;-83
2021/12/13 09:35:39;;;;;;;14.48;6.55;;;;;;;;;;5076117;28;20671;-84
2021/12/13 09:38:24;;;;;;;12.90;7.60;;;;;;;;;;5090021;28;20448;-83
2021/12/13 09:40:54;;;;;;;12.88;7.35;;;;;;;;;;5094006;28;20070;-85
2021/12/13 09:43:22;;;;;;;13.93;7.78;;;;;;;;;;5094648;28;20058;-84
2021/12/13 09:45:54;;;;;;;13.82;7.40;;;;;;;;;;5076510;28;20048;-85
2021/12/13 09:48:27;;;;;;;14.43;7.85;;;;;;;;;;5075701;28;20171;-84
2021/12/13 09:50:57;;;;;;;20.77;8.48;;;;;;;;;;5094222;28;20071;-85
2021/12/13 09:53:29;;;;;;;13.30;8.20;;;;;;;;;;5091791;28;20078;-84
2021/12/13 09:55:59;;;;;;;14.98;8.32;;;;;;;;;;5092494;28;20048;-86
2021/12/13 09:58:29;;;;;;;12.77;7.80;;;;;;;;;;5073606;28;20071;-84
2021/12/13 10:01:02;;;;;;;15.07;7.95;;;;;;;;;;5089954;28;20151;-84
2021/12/13 10:03:33;;;;;;;10.68;6.78;;;;;;;;;;5090104;28;20044;-84
2021/12/13 10:06:04;;;;;;;12.88;7.07;;;;;;;;;;5073993;28;20083;-85
2021/12/13 10:08:45;;;;;;;13.93;8.02;;;;;;;;;;5069579;28;20079;-84
2021/12/13 10:11:16;;;;;;;14.77;6.18;;;;;;;;;;5093117;28;20040;-84
2021/12/13 10:13:43;;;;;;;11.68;6.07;;;;;;;;;;5092354;28;20063;-84
2021/12/13 10:16:15;;;;;;;11.02;6.38;;;;;;;;;;5093997;28;20076;-84
2021/12/13 10:18:46;;;;;;;10.52;5.78;;;;;;;;;;5074636;28;20075;-85
2021/12/13 10:21:16;;;;;;;11.18;6.20;;;;;;;;;;5089063;28;20071;-85
2021/12/13 10:23:48;;;;;;;14.43;6.63;;;;;;;;;;5073879;28;20044;-85
2021/12/13 10:26:16;;;;;;;10.98;6.53;;;;;;;;;;5090128;28;20075;-85
2021/12/13 10:28:52;;;;;;;12.13;6.38;;;;;;;;;;5090880;28;20086;-84
2021/12/13 10:31:24;;;;;;;;;;;;;;;;;;5092493;28;20075;-84
2021/12/13 10:33:51;;;;;;;22.60;7.28;;;;;;;;;;5075341;28;19920;-84
2021/12/13 10:36:18;;;;;;;13.13;7.00;;;;;;;;;;5077583;28;21026;-83
2021/12/13 10:38:51;;;;;;;16.20;7.32;;;;;;;;;;5090895;28;20117;-82
2021/12/13 10:41:22;;;;;;;15.70;8.15;;;;;;;;;;5093330;28;20139;-83
2021/12/13 10:43:52;;;;;;;17.60;8.25;;;;;;;;;;5092110;28;20048;-82
2021/12/13 10:46:25;;;;;;;14.15;8.00;;;;;;;;;;5093947;28;20048;-83
2021/12/13 10:48:55;;;;;;;16.50;7.68;;;;;;;;;;5058535;28;20098;-84
2021/12/13 10:51:27;;;;;;;14.35;7.47;;;;;;;;;;5089249;28;20090;-84
2021/12/13 10:53:56;;;;;;;12.70;7.35;;;;;;;;;;5090666;28;20052;-84
2021/12/13 10:56:26;;;;;;;14.45;8.10;;;;;;;;;;5073523;28;20132;-83
2021/12/13 10:58:56;;;;;;;15.23;8.50;;;;;;;;;;5090908;28;20068;-84
2021/12/13 11:01:29;;;;;;;13.18;7.47;;;;;;;;;;5088370;28;20076;-84
2021/12/13 11:03:58;;;;;;;13.52;7.50;;;;;;;;;;5088725;28;20080;-85
2021/12/13 11:06:26;;;;;;;14.23;8.15;;;;;;;;;;5095358;28;20126;-83
2021/12/13 11:08:55;;;;;;;16.80;9.07;;;;;;;;;;5090809;28;20557;-84
2021/12/13 11:11:25;;;;;;;14.57;7.63;;;;;;;;;;5052713;28;20485;-83
2021/12/13 11:13:55;;;;;;;21.83;10.80;;;;;;;;;;5089801;28;20044;-83
2021/12/13 11:16:29;;;;;;;15.80;10.02;;;;;;;;;;5091924;28;20079;-85
2021/12/13 11:18:57;;;;;;;15.43;9.32;;;;;;;;;;5076999;28;20090;-86
2021/12/13 11:21:26;;;;;;;16.30;9.25;;;;;;;;;;5057931;28;20058;-84
2021/12/13 11:23:54;;;;;;;16.63;8.68;;;;;;;;;;5075592;28;20068;-84
2021/12/13 11:26:24;;;;;;;13.98;8.07;;;;;;;;;;5094876;28;20044;-84
2021/12/13 11:28:53;;;;;;;15.02;9.55;;;;;;;;;;5094949;28;20241;-88
2021/12/13 11:31:55;;;;;;;15.57;8.63;;;;;;;;;;5103602;28;20051;-86
2021/12/13 11:34:46;;;;;;;31.17;9.73;;;;;;;;;;5086791;28;20085;-87
2021/12/13 11:37:40;;;;;;;17.00;8.18;;;;;;;;;;5104312;28;20041;-87
2021/12/13 11:40:29;;;;;;;15.18;8.70;;;;;;;;;;5094776;28;20078;-83
2021/12/13 11:43:28;;;;;;;23.80;8.95;;;;;;;;;;5094163;28;20074;-84
2021/12/13 11:46:27;;;;;;;14.88;8.57;;;;;;;;;;5095119;28;20467;-84
2021/12/13 11:49:30;;;;;;;15.43;8.68;;;;;;;;;;5094871;28;20070;-83
2021/12/13 11:52:12;;;;;;;17.95;8.25;;;;;;;;;;5081154;28;20045;-83
2021/12/13 11:55:14;;;;;;;19.30;8.15;;;;;;;;;;5102256;28;20040;-83
2021/12/13 11:58:06;;;;;;;14.70;8.52;;;;;;;;;;5103600;28;20071;-84
2021/12/13 12:00:45;;;;;;;16.48;8.82;;;;;;;;;;5096408;28;20036;-84
2021/12/13 12:04:00;;;;;;;16.27;9.30;;;;;;;;;;5092228;28;20078;-85
2021/12/13 12:06:55;;;;;;;17.58;8.65;;;;;;;;;;5094248;28;20075;-86
2021/12/13 12:09:37;;;;;;;14.07;7.88;;;;;;;;;;5097295;28;20075;-85
2021/12/13 12:12:16;;;;;;;12.75;7.38;;;;;;;;;;5094691;28;20086;-88
2021/12/13 12:14:45;;;;;;;13.50;7.32;;;;;;;;;;5093224;28;20133;-84
2021/12/13 12:17:12;;;;;;;14.73;7.43;;;;;;;;;;5095477;28;20052;-86
2021/12/13 12:19:42;;;;;;;11.18;5.90;;;;;;;;;;5095537;28;20060;-85
2021/12/13 12:22:16;;;;;;;12.68;6.88;;;;;;;;;;5093021;28;20067;-85
2021/12/13 12:24:45;;;;;;;10.65;6.13;;;;;;;;;;5094836;28;20752;-85
2021/12/13 12:27:18;;;;;;;11.48;6.03;;;;;;;;;;5072396;28;20130;-85
2021/12/13 12:29:47;;;;;;;9.95;5.80;;;;;;;;;;5094160;28;20045;-85
2021/12/13 12:32:19;;;;;;;11.30;6.15;;;;;;;;;;5077794;28;20050;-86
2021/12/13 12:34:50;;;;;;;14.48;7.53;;;;;;;;;;5096721;28;20070;-85
2021/12/13 12:37:57;;;;;;;11.35;6.03;;;;;;;;;;5094503;28;20055;-87
2021/12/13 12:40:30;;;;;;;14.57;6.97;;;;;;;;;;5097782;28;20106;-85
2021/12/13 12:42:59;;;;;;;14.70;6.80;;;;;;;;;;5095612;28;20458;-85
2021/12/13 12:45:31;;;;;;;9.65;5.90;;;;;;;;;;5076138;28;20047;-86
2021/12/13 12:48:20;;;;;;;11.48;6.82;;;;;;;;;;5093336;28;20040;-84
2021/12/13 12:50:57;;;;;;;14.95;6.65;;;;;;;;;;5091765;28;20052;-86
2021/12/13 12:53:37;;;;;;;13.68;6.50;;;;;;;;;;5090947;28;20066;-84
2021/12/13 12:56:10;;;;;;;10.60;5.22;;;;;;;;;;5092619;28;20071;-86
2021/12/13 12:58:39;;;;;;;12.77;6.63;;;;;;;;;;5091975;28;20080;-84
2021/12/13 13:01:19;;;;;;;12.20;6.53;;;;;;;;;;5074458;28;20066;-86
2021/12/13 13:03:47;;;;;;;11.45;5.65;;;;;;;;;;5091180;28;20044;-86
2021/12/13 13:06:16;;;;;;;13.23;5.38;;;;;;;;;;5092421;28;20097;-85
2021/12/13 13:08:50;;;;;;;13.52;5.85;;;;;;;;;;5092291;28;20538;-85
2021/12/13 13:11:29;;;;;;;13.68;6.72;;;;;;;;;;5089559;28;20781;-84
2021/12/13 13:14:11;;;;;;;11.88;6.63;;;;;;;;;;5091165;28;20044;-85
2021/12/13 13:16:44;;;;;;;10.65;6.13;;;;;;;;;;5093448;28;20688;-85
2021/12/13 13:19:25;;;;;;;22.50;6.95;;;;;;;;;;5075716;28;20048;-85
2021/12/13 13:21:54;;;;;;;12.35;5.93;;;;;;;;;;5094492;28;20048;-86
2021/12/13 13:24:26;;;;;;;11.25;5.60;;;;;;;;;;5074106;28;20073;-85
2021/12/13 13:26:55;;;;;;;15.55;6.72;;;;;;;;;;5094191;28;20052;-85
2021/12/13 13:29:25;;;;;;;15.05;6.05;;;;;;;;;;5073748;28;20067;-85
2021/12/13 13:31:55;;;;;;;33.08;6.70;;;;;;;;;;5057991;28;20499;-86
2021/12/13 13:34:27;;;;;;;17.63;6.22;;;;;;;;;;5042762;28;20079;-85
2021/12/13 18:34:10;;;;;;;12.57;6.68;;;;;;;;;;606947;23;20310;-85
2021/12/13 18:36:41;;;;;;;12.30;5.72;;;;;;;;;;4974879;28;20056;-87
2021/12/13 18:39:17;;;;;;;9.15;4.10;;;;;;;;;;4979746;28;20490;-87
2021/12/13 18:41:49;;;;;;;10.93;5.45;;;;;;;;;;4980272;28;20042;-86
2021/12/13 18:44:29;;;;;;;12.55;5.40;;;;;;;;;;4957818;28;20058;-87
2021/12/13 18:47:00;;;;;;;6.80;3.15;;;;;;;;;;4939165;28;20141;-87
2021/12/13 18:52:44;;;;;;;8.35;4.32;;;;;;;;;;4954803;28;20133;-87
2021/12/13 18:55:19;;;;;;;8.07;4.25;;;;;;;;;;4965294;28;20138;-87
2021/12/13 18:57:55;;;;;;;8.48;4.07;;;;;;;;;;4964759;28;20672;-88
2021/12/13 19:00:31;;;;;;;12.73;4.10;;;;;;;;;;4945403;28;20062;-87
2021/12/13 19:03:05;;;;;;;9.20;3.90;;;;;;;;;;4962332;28;20051;-88
2021/12/13 19:05:40;;;;;;;8.38;3.83;;;;;;;;;;4965444;28;20506;-88
2021/12/13 19:08:30;;;;;;;8.38;3.63;;;;;;;;;;4943373;28;20059;-87
2021/12/13 19:11:18;;;;;;;9.38;4.82;;;;;;;;;;4949118;28;20043;-88
2021/12/13 19:13:52;;;;;;;8.77;3.53;;;;;;;;;;4962399;28;20054;-88
2021/12/13 19:16:23;;;;;;;8.20;3.90;;;;;;;;;;4950854;28;20047;-87
2021/12/13 19:18:54;;;;;;;6.97;3.45;;;;;;;;;;4940937;28;20063;-87
2021/12/13 19:21:30;;;;;;;10.50;4.10;;;;;;;;;;4962438;28;20099;-87
2021/12/13 19:24:11;;;;;;;8.98;3.85;;;;;;;;;;4965055;28;20113;-87
2021/12/13 19:26:39;;;;;;;10.55;4.78;;;;;;;;;;4968243;28;20078;-87
2021/12/13 19:29:09;;;;;;;8.40;3.90;;;;;;;;;;4948267;28;20152;-87
2021/12/13 19:31:49;;;;;;;7.28;2.80;;;;;;;;;;4946077;28;20039;-86
2021/12/13 19:34:21;;;;;;;10.32;3.80;;;;;;;;;;4933138;28;20081;-87
2021/12/13 19:37:10;;;;;;;11.07;3.88;;;;;;;;;;4963869;28;20413;-87
2021/12/13 19:39:46;;;;;;;10.98;5.35;;;;;;;;;;4962767;28;20117;-88
2021/12/13 19:42:18;;;;;;;11.33;4.60;;;;;;;;;;4947943;28;20541;-87
2021/12/13 19:44:48;;;;;;;8.52;3.75;;;;;;;;;;4943490;28;20310;-87
2021/12/13 19:47:20;;;;;;;11.73;4.60;;;;;;;;;;4946454;28;20061;-87
2021/12/13 19:49:53;;;;;;;10.80;4.10;;;;;;;;;;4955282;28;20066;-88
2021/12/13 19:52:32;;;;;;;10.13;4.35;;;;;;;;;;4964638;28;20054;-88
2021/12/13 19:55:05;;;;;;;10.85;4.00;;;;;;;;;;4962297;28;20047;-87
2021/12/13 19:57:36;;;;;;;8.02;3.45;;;;;;;;;;4963990;28;20194;-87
2021/12/13 20:00:17;;;;;;;9.90;3.67;;;;;;;;;;4950284;28;20412;-87
2021/12/13 20:02:55;;;;;;;13.38;4.28;;;;;;;;;;4957739;28;20046;-87
2021/12/13 20:05:27;;;;;;;12.88;5.15;;;;;;;;;;4967539;28;20043;-87
2021/12/13 20:07:59;;;;;;;17.20;5.82;;;;;;;;;;4967414;28;20182;-87
2021/12/13 20:10:30;;;;;;;14.13;5.38;;;;;;;;;;4953337;28;20043;-87
2021/12/13 20:13:00;;;;;;;11.32;4.32;;;;;;;;;;4965313;28;20098;-87
2021/12/13 20:15:33;;;;;;;12.73;4.75;;;;;;;;;;4965678;28;20051;-86
2021/12/13 20:18:11;;;;;;;8.20;3.80;;;;;;;;;;4929936;28;20058;-86
2021/12/13 20:20:45;;;;;;;7.68;3.30;;;;;;;;;;4944276;28;20058;-86
2021/12/13 20:23:24;;;;;;;9.63;3.67;;;;;;;;;;4959925;28;20626;-86
2021/12/13 20:25:55;;;;;;;13.40;5.10;;;;;;;;;;4966445;28;20051;-86
2021/12/13 20:28:29;;;;;;;8.82;4.22;;;;;;;;;;4950424;28;20779;-86
2021/12/13 20:31:03;;;;;;;11.50;4.25;;;;;;;;;;4945625;28;20614;-86
2021/12/13 20:33:40;;;;;;;8.32;3.85;;;;;;;;;;4963163;28;20142;-87
2021/12/13 20:36:12;;;;;;;8.23;4.35;;;;;;;;;;4961522;28;20063;-86
2021/12/13 20:38:49;;;;;;;6.90;3.80;;;;;;;;;;4966076;28;20046;-86